sensor_id;sensor_type;location;lat;lon;timestamp;P1;durP1;ratioP1;P2;durP2;ratioP2
16199;SDS011;8207;52.494;4.654;2022-11-15T00:01:32;50.20;;;28.67;;
16199;SDS011;8207;52.494;4.654;2022-11-15T00:03:59;49.37;;;30.40;;
16199;SDS011;8207;52.494;4.654;2022-11-15T00:06:27;51.50;;;29.93;;
16199;SDS011;8207;52.494;4.654;2022-11-15T00:08:54;49.40;;;29.87;;
16199;SDS011;8207;52.494;4.654;2022-11-15T00:11:23;56.37;;;30.70;;
16199;SDS011;8207;52.494;4.654;2022-11-15T00:13:50;55.17;;;31.10;;
16199;SDS011;8207;52.494;4.654;2022-11-15T00:16:20;58.63;;;31.23;;
16199;SDS011;8207;52.494;4.654;2022-11-15T00:18:47;53.87;;;30.53;;
16199;SDS011;8207;52.494;4.654;2022-11-15T00:21:14;51.40;;;31.43;;
16199;SDS011;8207;52.494;4.654;2022-11-15T00:23:43;55.07;;;30.77;;
16199;SDS011;8207;52.494;4.654;2022-11-15T00:26:10;54.63;;;31.37;;
16199;SDS011;8207;52.494;4.654;2022-11-15T00:28:39;57.77;;;34.63;;
16199;SDS011;8207;52.494;4.654;2022-11-15T00:31:13;57.40;;;32.77;;
16199;SDS011;8207;52.494;4.654;2022-11-15T00:33:42;58.53;;;33.03;;
16199;SDS011;8207;52.494;4.654;2022-11-15T00:36:09;57.60;;;32.77;;
16199;SDS011;8207;52.494;4.654;2022-11-15T00:38:37;65.67;;;35.23;;
16199;SDS011;8207;52.494;4.654;2022-11-15T00:41:07;61.90;;;33.33;;
16199;SDS011;8207;52.494;4.654;2022-11-15T00:43:34;61.97;;;34.20;;
16199;SDS011;8207;52.494;4.654;2022-11-15T00:46:01;57.73;;;33.20;;
16199;SDS011;8207;52.494;4.654;2022-11-15T00:48:28;68.90;;;35.37;;
16199;SDS011;8207;52.494;4.654;2022-11-15T00:50:55;66.20;;;33.80;;
16199;SDS011;8207;52.494;4.654;2022-11-15T00:53:22;63.77;;;34.13;;
16199;SDS011;8207;52.494;4.654;2022-11-15T00:55:48;61.93;;;34.67;;
16199;SDS011;8207;52.494;4.654;2022-11-15T00:58:17;71.43;;;35.50;;
16199;SDS011;8207;52.494;4.654;2022-11-15T01:00:44;69.83;;;34.63;;
16199;SDS011;8207;52.494;4.654;2022-11-15T01:03:10;70.80;;;36.53;;
16199;SDS011;8207;52.494;4.654;2022-11-15T01:05:37;72.60;;;38.47;;
16199;SDS011;8207;52.494;4.654;2022-11-15T01:08:04;66.37;;;35.37;;
16199;SDS011;8207;52.494;4.654;2022-11-15T01:10:31;70.90;;;38.13;;
16199;SDS011;8207;52.494;4.654;2022-11-15T01:12:58;70.87;;;36.07;;
16199;SDS011;8207;52.494;4.654;2022-11-15T01:15:26;68.50;;;36.27;;
16199;SDS011;8207;52.494;4.654;2022-11-15T01:17:53;73.37;;;37.70;;
16199;SDS011;8207;52.494;4.654;2022-11-15T01:20:20;75.27;;;38.33;;
16199;SDS011;8207;52.494;4.654;2022-11-15T01:22:47;82.83;;;39.33;;
16199;SDS011;8207;52.494;4.654;2022-11-15T01:25:14;73.53;;;37.63;;
16199;SDS011;8207;52.494;4.654;2022-11-15T01:27:41;79.83;;;37.70;;
16199;SDS011;8207;52.494;4.654;2022-11-15T01:30:08;87.80;;;38.57;;
16199;SDS011;8207;52.494;4.654;2022-11-15T01:32:36;81.47;;;37.73;;
16199;SDS011;8207;52.494;4.654;2022-11-15T01:35:04;75.77;;;37.53;;
16199;SDS011;8207;52.494;4.654;2022-11-15T01:37:31;81.33;;;38.40;;
16199;SDS011;8207;52.494;4.654;2022-11-15T01:39:58;76.93;;;37.90;;
16199;SDS011;8207;52.494;4.654;2022-11-15T01:42:24;78.47;;;35.90;;
16199;SDS011;8207;52.494;4.654;2022-11-15T01:44:52;78.07;;;38.60;;
16199;SDS011;8207;52.494;4.654;2022-11-15T01:47:20;77.13;;;38.53;;
16199;SDS011;8207;52.494;4.654;2022-11-15T01:49:52;84.87;;;38.53;;
16199;SDS011;8207;52.494;4.654;2022-11-15T01:52:24;84.90;;;39.27;;
16199;SDS011;8207;52.494;4.654;2022-11-15T01:54:55;79.33;;;36.57;;
16199;SDS011;8207;52.494;4.654;2022-11-15T01:57:25;76.47;;;37.90;;
16199;SDS011;8207;52.494;4.654;2022-11-15T01:59:52;82.90;;;38.83;;
16199;SDS011;8207;52.494;4.654;2022-11-15T02:02:19;84.60;;;40.03;;
16199;SDS011;8207;52.494;4.654;2022-11-15T02:04:46;75.37;;;37.57;;
16199;SDS011;8207;52.494;4.654;2022-11-15T02:07:16;76.83;;;39.07;;
16199;SDS011;8207;52.494;4.654;2022-11-15T02:09:44;82.67;;;37.97;;
16199;SDS011;8207;52.494;4.654;2022-11-15T02:12:13;75.57;;;36.03;;
16199;SDS011;8207;52.494;4.654;2022-11-15T02:14:45;74.80;;;36.33;;
16199;SDS011;8207;52.494;4.654;2022-11-15T02:17:25;67.07;;;35.07;;
16199;SDS011;8207;52.494;4.654;2022-11-15T02:20:19;78.87;;;36.50;;
16199;SDS011;8207;52.494;4.654;2022-11-15T02:23:13;75.47;;;35.77;;
16199;SDS011;8207;52.494;4.654;2022-11-15T02:26:02;70.10;;;33.37;;
16199;SDS011;8207;52.494;4.654;2022-11-15T02:28:44;65.47;;;34.57;;
16199;SDS011;8207;52.494;4.654;2022-11-15T02:31:19;70.60;;;35.07;;
16199;SDS011;8207;52.494;4.654;2022-11-15T02:33:56;80.83;;;36.33;;
16199;SDS011;8207;52.494;4.654;2022-11-15T02:36:30;65.77;;;35.60;;
16199;SDS011;8207;52.494;4.654;2022-11-15T02:39:06;77.87;;;36.83;;
16199;SDS011;8207;52.494;4.654;2022-11-15T02:41:40;84.37;;;37.57;;
16199;SDS011;8207;52.494;4.654;2022-11-15T02:44:13;76.20;;;37.00;;
16199;SDS011;8207;52.494;4.654;2022-11-15T02:46:47;74.50;;;36.60;;
16199;SDS011;8207;52.494;4.654;2022-11-15T02:49:36;93.93;;;38.33;;
16199;SDS011;8207;52.494;4.654;2022-11-15T02:52:05;81.70;;;35.27;;
16199;SDS011;8207;52.494;4.654;2022-11-15T02:54:33;96.63;;;37.80;;
16199;SDS011;8207;52.494;4.654;2022-11-15T02:57:00;84.83;;;39.87;;
16199;SDS011;8207;52.494;4.654;2022-11-15T03:02:39;78.20;;;37.37;;
16199;SDS011;8207;52.494;4.654;2022-11-15T03:05:19;85.50;;;37.83;;
16199;SDS011;8207;52.494;4.654;2022-11-15T03:07:57;80.50;;;36.53;;
16199;SDS011;8207;52.494;4.654;2022-11-15T03:10:32;99.40;;;39.97;;
16199;SDS011;8207;52.494;4.654;2022-11-15T03:13:09;89.30;;;36.67;;
16199;SDS011;8207;52.494;4.654;2022-11-15T03:15:46;91.13;;;38.87;;
16199;SDS011;8207;52.494;4.654;2022-11-15T03:18:23;98.90;;;41.00;;
16199;SDS011;8207;52.494;4.654;2022-11-15T03:20:56;88.17;;;39.47;;
16199;SDS011;8207;52.494;4.654;2022-11-15T03:23:26;99.97;;;40.50;;
16199;SDS011;8207;52.494;4.654;2022-11-15T03:25:54;100.40;;;40.87;;
16199;SDS011;8207;52.494;4.654;2022-11-15T03:28:25;109.93;;;41.57;;
16199;SDS011;8207;52.494;4.654;2022-11-15T03:30:58;96.87;;;41.23;;
16199;SDS011;8207;52.494;4.654;2022-11-15T03:33:49;94.00;;;39.97;;
16199;SDS011;8207;52.494;4.654;2022-11-15T03:36:19;100.57;;;41.10;;
16199;SDS011;8207;52.494;4.654;2022-11-15T03:38:48;101.00;;;41.73;;
16199;SDS011;8207;52.494;4.654;2022-11-15T03:41:15;116.47;;;44.33;;
16199;SDS011;8207;52.494;4.654;2022-11-15T03:43:50;105.63;;;43.27;;
16199;SDS011;8207;52.494;4.654;2022-11-15T03:46:23;91.87;;;39.60;;
16199;SDS011;8207;52.494;4.654;2022-11-15T03:48:56;84.40;;;39.40;;
16199;SDS011;8207;52.494;4.654;2022-11-15T03:51:27;100.40;;;41.73;;
16199;SDS011;8207;52.494;4.654;2022-11-15T03:53:56;93.90;;;39.93;;
16199;SDS011;8207;52.494;4.654;2022-11-15T03:56:23;114.93;;;42.57;;
16199;SDS011;8207;52.494;4.654;2022-11-15T03:58:49;101.00;;;42.07;;
16199;SDS011;8207;52.494;4.654;2022-11-15T04:01:16;92.93;;;41.20;;
16199;SDS011;8207;52.494;4.654;2022-11-15T04:03:43;89.60;;;40.33;;
16199;SDS011;8207;52.494;4.654;2022-11-15T04:06:11;113.07;;;43.83;;
16199;SDS011;8207;52.494;4.654;2022-11-15T04:08:38;109.07;;;44.80;;
16199;SDS011;8207;52.494;4.654;2022-11-15T04:11:05;101.03;;;42.30;;
16199;SDS011;8207;52.494;4.654;2022-11-15T04:13:32;97.60;;;42.00;;
16199;SDS011;8207;52.494;4.654;2022-11-15T04:15:59;101.87;;;42.97;;
16199;SDS011;8207;52.494;4.654;2022-11-15T04:18:26;117.53;;;43.43;;
16199;SDS011;8207;52.494;4.654;2022-11-15T04:20:52;113.40;;;46.53;;
16199;SDS011;8207;52.494;4.654;2022-11-15T04:23:38;107.20;;;44.57;;
16199;SDS011;8207;52.494;4.654;2022-11-15T04:26:22;103.20;;;42.67;;
16199;SDS011;8207;52.494;4.654;2022-11-15T04:28:49;108.83;;;46.00;;
16199;SDS011;8207;52.494;4.654;2022-11-15T04:31:34;113.37;;;46.90;;
16199;SDS011;8207;52.494;4.654;2022-11-15T04:34:00;100.07;;;44.83;;
16199;SDS011;8207;52.494;4.654;2022-11-15T04:36:27;86.47;;;41.80;;
16199;SDS011;8207;52.494;4.654;2022-11-15T04:39:13;98.80;;;45.90;;
16199;SDS011;8207;52.494;4.654;2022-11-15T04:41:40;102.73;;;46.57;;
16199;SDS011;8207;52.494;4.654;2022-11-15T04:44:07;111.93;;;45.90;;
16199;SDS011;8207;52.494;4.654;2022-11-15T04:46:34;101.23;;;46.07;;
16199;SDS011;8207;52.494;4.654;2022-11-15T04:49:01;98.13;;;44.87;;
16199;SDS011;8207;52.494;4.654;2022-11-15T04:51:28;101.37;;;45.77;;
16199;SDS011;8207;52.494;4.654;2022-11-15T04:53:55;98.93;;;44.73;;
16199;SDS011;8207;52.494;4.654;2022-11-15T04:56:23;90.50;;;44.83;;
16199;SDS011;8207;52.494;4.654;2022-11-15T04:58:50;99.23;;;44.03;;
16199;SDS011;8207;52.494;4.654;2022-11-15T05:01:17;88.93;;;45.37;;
16199;SDS011;8207;52.494;4.654;2022-11-15T05:03:44;96.47;;;45.03;;
16199;SDS011;8207;52.494;4.654;2022-11-15T05:06:28;83.50;;;42.20;;
16199;SDS011;8207;52.494;4.654;2022-11-15T05:08:56;93.17;;;44.73;;
16199;SDS011;8207;52.494;4.654;2022-11-15T05:11:24;89.20;;;44.13;;
16199;SDS011;8207;52.494;4.654;2022-11-15T05:13:52;85.30;;;43.37;;
16199;SDS011;8207;52.494;4.654;2022-11-15T05:16:19;94.27;;;45.37;;
16199;SDS011;8207;52.494;4.654;2022-11-15T05:18:46;84.27;;;42.30;;
16199;SDS011;8207;52.494;4.654;2022-11-15T05:21:13;84.43;;;41.93;;
16199;SDS011;8207;52.494;4.654;2022-11-15T05:23:41;83.77;;;41.73;;
16199;SDS011;8207;52.494;4.654;2022-11-15T05:26:09;87.83;;;43.63;;
16199;SDS011;8207;52.494;4.654;2022-11-15T05:28:37;83.67;;;40.97;;
16199;SDS011;8207;52.494;4.654;2022-11-15T05:31:05;70.97;;;39.60;;
16199;SDS011;8207;52.494;4.654;2022-11-15T05:33:33;85.23;;;43.07;;
16199;SDS011;8207;52.494;4.654;2022-11-15T05:36:02;76.13;;;39.03;;
16199;SDS011;8207;52.494;4.654;2022-11-15T05:38:33;72.97;;;40.33;;
16199;SDS011;8207;52.494;4.654;2022-11-15T05:41:00;67.07;;;37.70;;
16199;SDS011;8207;52.494;4.654;2022-11-15T05:43:27;67.37;;;37.27;;
16199;SDS011;8207;52.494;4.654;2022-11-15T05:45:58;75.07;;;39.57;;
16199;SDS011;8207;52.494;4.654;2022-11-15T05:48:26;71.57;;;39.30;;
16199;SDS011;8207;52.494;4.654;2022-11-15T05:50:53;61.70;;;36.93;;
16199;SDS011;8207;52.494;4.654;2022-11-15T05:53:21;77.20;;;38.03;;
16199;SDS011;8207;52.494;4.654;2022-11-15T05:55:51;63.27;;;34.40;;
16199;SDS011;8207;52.494;4.654;2022-11-15T05:58:18;71.97;;;38.13;;
16199;SDS011;8207;52.494;4.654;2022-11-15T06:00:46;57.27;;;34.63;;
16199;SDS011;8207;52.494;4.654;2022-11-15T06:03:15;65.57;;;36.00;;
16199;SDS011;8207;52.494;4.654;2022-11-15T06:05:41;68.83;;;35.33;;
16199;SDS011;8207;52.494;4.654;2022-11-15T06:08:08;57.50;;;34.63;;
16199;SDS011;8207;52.494;4.654;2022-11-15T06:10:35;53.37;;;33.43;;
16199;SDS011;8207;52.494;4.654;2022-11-15T06:13:02;60.77;;;34.53;;
16199;SDS011;8207;52.494;4.654;2022-11-15T06:15:31;50.03;;;33.13;;
16199;SDS011;8207;52.494;4.654;2022-11-15T06:17:59;60.67;;;35.13;;
16199;SDS011;8207;52.494;4.654;2022-11-15T06:20:28;50.07;;;31.97;;
16199;SDS011;8207;52.494;4.654;2022-11-15T06:22:56;64.93;;;35.90;;
16199;SDS011;8207;52.494;4.654;2022-11-15T06:25:24;49.47;;;32.50;;
16199;SDS011;8207;52.494;4.654;2022-11-15T06:27:51;49.33;;;31.97;;
16199;SDS011;8207;52.494;4.654;2022-11-15T06:30:18;53.23;;;33.77;;
16199;SDS011;8207;52.494;4.654;2022-11-15T06:32:45;51.77;;;31.93;;
16199;SDS011;8207;52.494;4.654;2022-11-15T06:35:12;60.40;;;32.97;;
16199;SDS011;8207;52.494;4.654;2022-11-15T06:37:41;45.53;;;31.87;;
16199;SDS011;8207;52.494;4.654;2022-11-15T06:40:09;51.63;;;30.03;;
16199;SDS011;8207;52.494;4.654;2022-11-15T06:42:36;43.70;;;27.07;;
16199;SDS011;8207;52.494;4.654;2022-11-15T06:45:04;43.57;;;27.67;;
16199;SDS011;8207;52.494;4.654;2022-11-15T06:47:31;48.67;;;28.60;;
16199;SDS011;8207;52.494;4.654;2022-11-15T06:49:58;42.93;;;28.93;;
16199;SDS011;8207;52.494;4.654;2022-11-15T06:52:25;48.67;;;27.00;;
16199;SDS011;8207;52.494;4.654;2022-11-15T06:54:53;43.73;;;25.97;;
16199;SDS011;8207;52.494;4.654;2022-11-15T06:57:20;42.70;;;25.37;;
16199;SDS011;8207;52.494;4.654;2022-11-15T06:59:46;39.47;;;25.20;;
16199;SDS011;8207;52.494;4.654;2022-11-15T07:02:13;38.50;;;24.33;;
16199;SDS011;8207;52.494;4.654;2022-11-15T07:04:40;36.47;;;24.40;;
16199;SDS011;8207;52.494;4.654;2022-11-15T07:07:07;39.97;;;25.57;;
16199;SDS011;8207;52.494;4.654;2022-11-15T07:09:34;45.47;;;25.90;;
16199;SDS011;8207;52.494;4.654;2022-11-15T07:12:02;38.83;;;25.00;;
16199;SDS011;8207;52.494;4.654;2022-11-15T07:14:30;37.77;;;24.37;;
16199;SDS011;8207;52.494;4.654;2022-11-15T07:16:56;33.37;;;21.63;;
16199;SDS011;8207;52.494;4.654;2022-11-15T07:19:23;43.63;;;23.87;;
16199;SDS011;8207;52.494;4.654;2022-11-15T07:21:50;39.73;;;22.73;;
16199;SDS011;8207;52.494;4.654;2022-11-15T07:24:17;40.10;;;21.27;;
16199;SDS011;8207;52.494;4.654;2022-11-15T07:26:44;37.37;;;21.63;;
16199;SDS011;8207;52.494;4.654;2022-11-15T07:29:12;31.43;;;21.33;;
16199;SDS011;8207;52.494;4.654;2022-11-15T07:31:39;26.77;;;19.90;;
16199;SDS011;8207;52.494;4.654;2022-11-15T07:34:06;30.47;;;20.57;;
16199;SDS011;8207;52.494;4.654;2022-11-15T07:36:33;31.03;;;21.60;;
16199;SDS011;8207;52.494;4.654;2022-11-15T07:39:00;40.97;;;21.37;;
16199;SDS011;8207;52.494;4.654;2022-11-15T07:41:27;32.90;;;20.73;;
16199;SDS011;8207;52.494;4.654;2022-11-15T07:43:54;40.87;;;22.03;;
16199;SDS011;8207;52.494;4.654;2022-11-15T07:46:23;32.27;;;20.47;;
16199;SDS011;8207;52.494;4.654;2022-11-15T07:48:50;38.70;;;21.80;;
16199;SDS011;8207;52.494;4.654;2022-11-15T07:51:17;36.90;;;21.80;;
16199;SDS011;8207;52.494;4.654;2022-11-15T07:53:44;36.27;;;22.13;;
16199;SDS011;8207;52.494;4.654;2022-11-15T07:56:11;30.10;;;20.53;;
16199;SDS011;8207;52.494;4.654;2022-11-15T07:58:38;35.57;;;20.90;;
16199;SDS011;8207;52.494;4.654;2022-11-15T08:01:05;32.40;;;20.87;;
16199;SDS011;8207;52.494;4.654;2022-11-15T08:03:36;30.33;;;20.40;;
16199;SDS011;8207;52.494;4.654;2022-11-15T08:06:03;32.77;;;20.97;;
16199;SDS011;8207;52.494;4.654;2022-11-15T08:08:31;36.93;;;20.57;;
16199;SDS011;8207;52.494;4.654;2022-11-15T08:10:57;30.30;;;20.13;;
16199;SDS011;8207;52.494;4.654;2022-11-15T08:13:24;33.50;;;20.00;;
16199;SDS011;8207;52.494;4.654;2022-11-15T08:15:51;25.63;;;18.50;;
16199;SDS011;8207;52.494;4.654;2022-11-15T08:18:23;28.60;;;18.73;;
16199;SDS011;8207;52.494;4.654;2022-11-15T08:20:51;29.37;;;17.83;;
16199;SDS011;8207;52.494;4.654;2022-11-15T08:23:18;25.57;;;17.20;;
16199;SDS011;8207;52.494;4.654;2022-11-15T08:25:44;28.20;;;16.13;;
16199;SDS011;8207;52.494;4.654;2022-11-15T08:28:11;28.27;;;16.13;;
16199;SDS011;8207;52.494;4.654;2022-11-15T08:30:38;23.60;;;15.97;;
16199;SDS011;8207;52.494;4.654;2022-11-15T08:33:10;21.00;;;15.20;;
16199;SDS011;8207;52.494;4.654;2022-11-15T08:35:38;21.80;;;14.83;;
16199;SDS011;8207;52.494;4.654;2022-11-15T08:38:06;23.83;;;14.33;;
16199;SDS011;8207;52.494;4.654;2022-11-15T08:40:33;25.33;;;14.00;;
16199;SDS011;8207;52.494;4.654;2022-11-15T08:43:01;24.90;;;15.87;;
16199;SDS011;8207;52.494;4.654;2022-11-15T08:45:28;20.23;;;13.07;;
16199;SDS011;8207;52.494;4.654;2022-11-15T08:47:56;22.73;;;13.60;;
16199;SDS011;8207;52.494;4.654;2022-11-15T08:50:23;21.10;;;13.53;;
16199;SDS011;8207;52.494;4.654;2022-11-15T08:52:50;23.87;;;14.60;;
16199;SDS011;8207;52.494;4.654;2022-11-15T08:55:18;22.50;;;14.93;;
16199;SDS011;8207;52.494;4.654;2022-11-15T08:57:45;24.23;;;14.83;;
16199;SDS011;8207;52.494;4.654;2022-11-15T09:00:12;23.40;;;15.43;;
16199;SDS011;8207;52.494;4.654;2022-11-15T09:02:40;25.23;;;15.30;;
16199;SDS011;8207;52.494;4.654;2022-11-15T09:05:07;20.87;;;14.07;;
16199;SDS011;8207;52.494;4.654;2022-11-15T09:07:34;23.17;;;14.50;;
16199;SDS011;8207;52.494;4.654;2022-11-15T09:10:01;21.27;;;14.70;;
16199;SDS011;8207;52.494;4.654;2022-11-15T09:12:30;25.57;;;13.97;;
16199;SDS011;8207;52.494;4.654;2022-11-15T09:14:56;23.97;;;13.67;;
16199;SDS011;8207;52.494;4.654;2022-11-15T09:17:24;22.53;;;13.30;;
16199;SDS011;8207;52.494;4.654;2022-11-15T09:19:51;23.83;;;14.27;;
16199;SDS011;8207;52.494;4.654;2022-11-15T09:22:17;25.87;;;14.97;;
16199;SDS011;8207;52.494;4.654;2022-11-15T09:24:44;26.03;;;15.60;;
16199;SDS011;8207;52.494;4.654;2022-11-15T09:27:11;27.03;;;15.83;;
16199;SDS011;8207;52.494;4.654;2022-11-15T09:29:39;23.70;;;15.53;;
16199;SDS011;8207;52.494;4.654;2022-11-15T09:32:06;22.27;;;16.80;;
16199;SDS011;8207;52.494;4.654;2022-11-15T09:34:33;20.67;;;15.73;;
16199;SDS011;8207;52.494;4.654;2022-11-15T09:37:00;25.37;;;16.00;;
16199;SDS011;8207;52.494;4.654;2022-11-15T09:39:27;26.23;;;16.20;;
16199;SDS011;8207;52.494;4.654;2022-11-15T09:41:57;26.10;;;15.43;;
16199;SDS011;8207;52.494;4.654;2022-11-15T09:44:41;26.30;;;15.47;;
16199;SDS011;8207;52.494;4.654;2022-11-15T09:47:29;22.67;;;13.63;;
16199;SDS011;8207;52.494;4.654;2022-11-15T09:50:08;19.67;;;14.07;;
16199;SDS011;8207;52.494;4.654;2022-11-15T09:52:37;17.67;;;12.87;;
16199;SDS011;8207;52.494;4.654;2022-11-15T09:55:08;17.67;;;11.73;;
16199;SDS011;8207;52.494;4.654;2022-11-15T09:57:38;17.33;;;12.03;;
16199;SDS011;8207;52.494;4.654;2022-11-15T10:00:11;14.37;;;11.17;;
16199;SDS011;8207;52.494;4.654;2022-11-15T10:02:46;18.27;;;10.97;;
16199;SDS011;8207;52.494;4.654;2022-11-15T10:05:26;18.43;;;10.00;;
16199;SDS011;8207;52.494;4.654;2022-11-15T10:07:56;16.10;;;9.53;;
16199;SDS011;8207;52.494;4.654;2022-11-15T10:10:31;15.43;;;9.20;;
16199;SDS011;8207;52.494;4.654;2022-11-15T10:13:02;13.73;;;8.17;;
16199;SDS011;8207;52.494;4.654;2022-11-15T10:15:31;13.20;;;7.80;;
16199;SDS011;8207;52.494;4.654;2022-11-15T10:18:02;13.80;;;8.37;;
16199;SDS011;8207;52.494;4.654;2022-11-15T10:20:42;13.30;;;8.00;;
16199;SDS011;8207;52.494;4.654;2022-11-15T10:23:14;11.03;;;8.33;;
16199;SDS011;8207;52.494;4.654;2022-11-15T10:25:43;11.50;;;8.17;;
16199;SDS011;8207;52.494;4.654;2022-11-15T10:28:13;11.93;;;7.70;;
16199;SDS011;8207;52.494;4.654;2022-11-15T10:30:43;12.93;;;7.50;;
16199;SDS011;8207;52.494;4.654;2022-11-15T10:33:12;12.67;;;7.30;;
16199;SDS011;8207;52.494;4.654;2022-11-15T10:35:45;12.43;;;7.17;;
16199;SDS011;8207;52.494;4.654;2022-11-15T10:38:12;11.77;;;7.43;;
16199;SDS011;8207;52.494;4.654;2022-11-15T10:40:40;13.30;;;8.20;;
16199;SDS011;8207;52.494;4.654;2022-11-15T10:43:16;10.37;;;7.30;;
16199;SDS011;8207;52.494;4.654;2022-11-15T10:45:46;9.43;;;6.63;;
16199;SDS011;8207;52.494;4.654;2022-11-15T10:48:19;11.33;;;8.00;;
16199;SDS011;8207;52.494;4.654;2022-11-15T10:50:51;11.20;;;6.97;;
16199;SDS011;8207;52.494;4.654;2022-11-15T10:53:21;13.63;;;7.03;;
16199;SDS011;8207;52.494;4.654;2022-11-15T10:55:52;9.07;;;6.87;;
16199;SDS011;8207;52.494;4.654;2022-11-15T10:58:21;16.23;;;7.73;;
16199;SDS011;8207;52.494;4.654;2022-11-15T11:00:58;11.53;;;7.13;;
16199;SDS011;8207;52.494;4.654;2022-11-15T11:03:39;9.40;;;7.03;;
16199;SDS011;8207;52.494;4.654;2022-11-15T11:06:08;12.57;;;6.80;;
16199;SDS011;8207;52.494;4.654;2022-11-15T11:08:37;9.07;;;5.90;;
16199;SDS011;8207;52.494;4.654;2022-11-15T11:11:05;10.70;;;6.30;;
16199;SDS011;8207;52.494;4.654;2022-11-15T11:13:34;9.17;;;5.97;;
16199;SDS011;8207;52.494;4.654;2022-11-15T11:16:22;12.90;;;6.27;;
16199;SDS011;8207;52.494;4.654;2022-11-15T11:19:04;9.10;;;5.93;;
16199;SDS011;8207;52.494;4.654;2022-11-15T11:21:51;9.73;;;4.97;;
16199;SDS011;8207;52.494;4.654;2022-11-15T11:24:29;10.57;;;5.27;;
16199;SDS011;8207;52.494;4.654;2022-11-15T11:27:05;7.27;;;4.67;;
16199;SDS011;8207;52.494;4.654;2022-11-15T11:29:46;11.37;;;4.80;;
16199;SDS011;8207;52.494;4.654;2022-11-15T11:32:30;14.47;;;4.53;;
16199;SDS011;8207;52.494;4.654;2022-11-15T11:35:06;8.30;;;4.57;;
16199;SDS011;8207;52.494;4.654;2022-11-15T11:37:40;6.63;;;4.10;;
16199;SDS011;8207;52.494;4.654;2022-11-15T11:40:16;6.37;;;3.90;;
16199;SDS011;8207;52.494;4.654;2022-11-15T11:42:53;13.23;;;4.67;;
16199;SDS011;8207;52.494;4.654;2022-11-15T11:45:27;7.30;;;3.60;;
16199;SDS011;8207;52.494;4.654;2022-11-15T11:48:18;8.13;;;3.97;;
16199;SDS011;8207;52.494;4.654;2022-11-15T11:50:52;7.83;;;4.03;;
16199;SDS011;8207;52.494;4.654;2022-11-15T11:53:24;7.33;;;4.50;;
16199;SDS011;8207;52.494;4.654;2022-11-15T11:55:56;6.97;;;4.17;;
16199;SDS011;8207;52.494;4.654;2022-11-15T11:58:28;10.10;;;4.00;;
16199;SDS011;8207;52.494;4.654;2022-11-15T12:01:03;8.67;;;3.23;;
16199;SDS011;8207;52.494;4.654;2022-11-15T12:03:38;7.87;;;3.07;;
16199;SDS011;8207;52.494;4.654;2022-11-15T12:06:12;7.87;;;3.13;;
16199;SDS011;8207;52.494;4.654;2022-11-15T12:08:49;8.60;;;3.30;;
16199;SDS011;8207;52.494;4.654;2022-11-15T12:11:20;8.10;;;3.53;;
16199;SDS011;8207;52.494;4.654;2022-11-15T12:13:53;9.00;;;3.23;;
16199;SDS011;8207;52.494;4.654;2022-11-15T12:16:26;6.33;;;2.87;;
16199;SDS011;8207;52.494;4.654;2022-11-15T12:18:56;7.53;;;2.57;;
16199;SDS011;8207;52.494;4.654;2022-11-15T12:21:29;5.90;;;2.77;;
16199;SDS011;8207;52.494;4.654;2022-11-15T12:24:01;7.03;;;2.93;;
16199;SDS011;8207;52.494;4.654;2022-11-15T12:26:33;6.57;;;3.03;;
16199;SDS011;8207;52.494;4.654;2022-11-15T12:29:03;5.87;;;2.77;;
16199;SDS011;8207;52.494;4.654;2022-11-15T12:31:36;6.70;;;2.53;;
16199;SDS011;8207;52.494;4.654;2022-11-15T12:34:15;7.17;;;2.80;;
16199;SDS011;8207;52.494;4.654;2022-11-15T12:36:56;6.77;;;2.83;;
16199;SDS011;8207;52.494;4.654;2022-11-15T12:42:35;7.23;;;3.13;;
16199;SDS011;8207;52.494;4.654;2022-11-15T12:47:53;6.03;;;2.70;;
16199;SDS011;8207;52.494;4.654;2022-11-15T12:53:27;8.53;;;2.67;;
16199;SDS011;8207;52.494;4.654;2022-11-15T12:58:48;9.07;;;2.67;;
16199;SDS011;8207;52.494;4.654;2022-11-15T13:04:23;10.20;;;2.67;;
16199;SDS011;8207;52.494;4.654;2022-11-15T13:06:52;9.30;;;3.10;;
16199;SDS011;8207;52.494;4.654;2022-11-15T13:18:32;7.77;;;2.30;;
16199;SDS011;8207;52.494;4.654;2022-11-15T13:21:03;5.23;;;2.40;;
16199;SDS011;8207;52.494;4.654;2022-11-15T13:23:53;4.47;;;1.60;;
16199;SDS011;8207;52.494;4.654;2022-11-15T13:26:22;4.53;;;1.40;;
16199;SDS011;8207;52.494;4.654;2022-11-15T13:28:51;6.70;;;1.63;;
16199;SDS011;8207;52.494;4.654;2022-11-15T13:31:28;3.67;;;1.60;;
16199;SDS011;8207;52.494;4.654;2022-11-15T13:34:02;6.17;;;2.00;;
16199;SDS011;8207;52.494;4.654;2022-11-15T13:36:40;5.73;;;1.70;;
16199;SDS011;8207;52.494;4.654;2022-11-15T13:39:12;6.57;;;2.20;;
16199;SDS011;8207;52.494;4.654;2022-11-15T13:41:51;10.10;;;1.83;;
16199;SDS011;8207;52.494;4.654;2022-11-15T13:44:19;5.80;;;1.50;;
16199;SDS011;8207;52.494;4.654;2022-11-15T13:46:46;7.20;;;1.67;;
16199;SDS011;8207;52.494;4.654;2022-11-15T13:49:13;4.73;;;1.90;;
16199;SDS011;8207;52.494;4.654;2022-11-15T13:51:42;8.73;;;1.80;;
16199;SDS011;8207;52.494;4.654;2022-11-15T13:54:19;6.47;;;1.93;;
16199;SDS011;8207;52.494;4.654;2022-11-15T13:56:52;7.17;;;1.40;;
16199;SDS011;8207;52.494;4.654;2022-11-15T13:59:24;9.53;;;1.70;;
16199;SDS011;8207;52.494;4.654;2022-11-15T14:01:52;4.40;;;1.77;;
16199;SDS011;8207;52.494;4.654;2022-11-15T14:04:22;5.17;;;1.70;;
16199;SDS011;8207;52.494;4.654;2022-11-15T14:06:51;3.17;;;1.30;;
16199;SDS011;8207;52.494;4.654;2022-11-15T14:12:30;3.77;;;1.23;;
16199;SDS011;8207;52.494;4.654;2022-11-15T14:14:58;8.47;;;2.00;;
16199;SDS011;8207;52.494;4.654;2022-11-15T14:17:33;5.23;;;2.13;;
16199;SDS011;8207;52.494;4.654;2022-11-15T14:20:02;4.67;;;1.57;;
16199;SDS011;8207;52.494;4.654;2022-11-15T14:22:52;4.23;;;1.50;;
16199;SDS011;8207;52.494;4.654;2022-11-15T14:25:21;6.87;;;2.27;;
16199;SDS011;8207;52.494;4.654;2022-11-15T14:28:10;5.53;;;1.67;;
16199;SDS011;8207;52.494;4.654;2022-11-15T14:30:39;3.77;;;1.50;;
16199;SDS011;8207;52.494;4.654;2022-11-15T14:33:18;7.47;;;1.40;;
16199;SDS011;8207;52.494;4.654;2022-11-15T14:35:47;13.27;;;1.93;;
16199;SDS011;8207;52.494;4.654;2022-11-15T14:38:14;4.97;;;1.27;;
16199;SDS011;8207;52.494;4.654;2022-11-15T14:40:41;4.47;;;1.57;;
16199;SDS011;8207;52.494;4.654;2022-11-15T14:43:10;6.57;;;1.40;;
16199;SDS011;8207;52.494;4.654;2022-11-15T14:45:38;3.47;;;1.53;;
16199;SDS011;8207;52.494;4.654;2022-11-15T14:48:05;6.23;;;1.30;;
16199;SDS011;8207;52.494;4.654;2022-11-15T14:50:33;5.33;;;1.53;;
16199;SDS011;8207;52.494;4.654;2022-11-15T14:53:00;8.33;;;1.63;;
16199;SDS011;8207;52.494;4.654;2022-11-15T14:55:28;6.07;;;1.40;;
16199;SDS011;8207;52.494;4.654;2022-11-15T14:57:57;5.30;;;1.33;;
16199;SDS011;8207;52.494;4.654;2022-11-15T15:00:25;4.07;;;1.43;;
16199;SDS011;8207;52.494;4.654;2022-11-15T15:02:53;2.57;;;1.20;;
16199;SDS011;8207;52.494;4.654;2022-11-15T15:05:21;4.27;;;1.70;;
16199;SDS011;8207;52.494;4.654;2022-11-15T15:07:50;5.50;;;1.70;;
16199;SDS011;8207;52.494;4.654;2022-11-15T15:10:18;6.37;;;1.67;;
16199;SDS011;8207;52.494;4.654;2022-11-15T15:12:45;6.50;;;2.00;;
16199;SDS011;8207;52.494;4.654;2022-11-15T15:15:13;9.10;;;1.87;;
16199;SDS011;8207;52.494;4.654;2022-11-15T15:17:43;4.87;;;1.43;;
16199;SDS011;8207;52.494;4.654;2022-11-15T15:20:10;8.00;;;1.80;;
16199;SDS011;8207;52.494;4.654;2022-11-15T15:22:37;3.20;;;1.43;;
16199;SDS011;8207;52.494;4.654;2022-11-15T15:25:14;4.73;;;1.80;;
16199;SDS011;8207;52.494;4.654;2022-11-15T15:27:47;5.73;;;1.80;;
16199;SDS011;8207;52.494;4.654;2022-11-15T15:30:14;5.83;;;1.70;;